Time;durP1;ratioP1;P1;durP2;ratioP2;P2;SDS_P1;SDS_P2;PMS_P1;PMS_P2;Temp;Humidity;BMP_temperature;BMP_pressure;BME280_temperature;BME280_humidity;BME280_pressure;Samples;Min_cycle;Max_cycle;Signal;HPM_P1;HPM_P2
2021/05/10 00:02:05;;;;;;;14.80;4.03;;;15.60;99.90;;;;;;5015216;28;20026;-77
2021/05/10 00:04:31;;;;;;;16.02;4.10;;;15.50;99.90;;;;;;5010889;28;20038;-76
2021/05/10 00:06:57;;;;;;;14.73;4.78;;;15.50;99.90;;;;;;5014839;28;20351;-77
2021/05/10 00:09:23;;;;;;;17.73;4.25;;;15.40;99.90;;;;;;5014626;28;20116;-76
2021/05/10 00:11:49;;;;;;;8.98;4.57;;;15.40;99.90;;;;;;5014256;28;20109;-79
2021/05/10 00:14:15;;;;;;;13.32;4.00;;;15.50;99.90;;;;;;5014530;28;20049;-76
2021/05/10 00:16:41;;;;;;;9.15;3.60;;;15.40;99.90;;;;;;5014395;28;20030;-77
2021/05/10 00:19:07;;;;;;;8.38;4.03;;;15.40;99.90;;;;;;5014603;28;20034;-76
2021/05/10 00:21:33;;;;;;;11.30;3.83;;;15.40;99.90;;;;;;5014296;28;20107;-85
2021/05/10 00:23:58;;;;;;;10.85;4.15;;;15.40;99.90;;;;;;5013216;28;20423;-78
2021/05/10 00:26:24;;;;;;;7.88;4.00;;;15.40;99.90;;;;;;5005772;28;20685;-76
2021/05/10 00:28:50;;;;;;;5.53;3.60;;;15.40;99.90;;;;;;5012353;28;20028;-79
2021/05/10 00:31:15;;;;;;;8.50;3.58;;;15.40;99.90;;;;;;5013964;28;20486;-78
2021/05/10 00:33:41;;;;;;;8.57;3.80;;;15.40;99.90;;;;;;5011974;28;20034;-78
2021/05/10 00:36:07;;;;;;;5.65;3.50;;;15.30;99.90;;;;;;5002906;28;20176;-85
2021/05/10 00:38:32;;;;;;;7.28;3.78;;;15.20;99.90;;;;;;5014053;28;20544;-77
2021/05/10 00:40:58;;;;;;;6.78;3.75;;;15.10;99.90;;;;;;5014094;28;20022;-81
2021/05/10 00:43:24;;;;;;;7.78;3.55;;;15.00;99.90;;;;;;5013876;28;20479;-77
2021/05/10 00:45:49;;;;;;;7.85;3.88;;;15.00;99.90;;;;;;5011492;28;20033;-77
2021/05/10 00:48:17;;;;;;;6.00;3.67;;;14.90;99.90;;;;;;5013670;28;20038;-78
2021/05/10 00:50:43;;;;;;;4.90;3.55;;;14.90;99.90;;;;;;5013657;28;20132;-77
2021/05/10 00:53:09;;;;;;;8.80;3.90;;;14.90;99.90;;;;;;5013935;28;20473;-79
2021/05/10 00:55:36;;;;;;;4.47;3.10;;;14.80;99.90;;;;;;5013667;28;20108;-78
2021/05/10 00:58:02;;;;;;;14.23;3.28;;;14.80;99.90;;;;;;5013252;28;20022;-79
2021/05/10 01:00:40;;;;;;;6.18;3.67;;;14.90;99.90;;;;;;5010250;28;20042;-77
2021/05/10 01:03:08;;;;;;;8.00;3.88;;;14.90;99.90;;;;;;5011585;28;20030;-78
2021/05/10 01:05:36;;;;;;;5.88;3.20;;;14.90;99.90;;;;;;5013593;28;20056;-77
2021/05/10 01:08:02;;;;;;;6.13;3.10;;;14.90;99.90;;;;;;5007579;28;20030;-77
2021/05/10 01:10:28;;;;;;;5.88;3.28;;;15.00;99.90;;;;;;5012803;28;20101;-81
2021/05/10 01:12:54;;;;;;;7.18;3.30;;;15.00;99.90;;;;;;5013706;28;20434;-81
2021/05/10 01:15:21;;;;;;;8.00;3.42;;;15.00;99.90;;;;;;5013351;28;20026;-79
2021/05/10 01:17:51;;;;;;;6.95;3.13;;;15.10;99.90;;;;;;5011998;28;20034;-78
2021/05/10 01:20:17;;;;;;;9.85;3.10;;;15.10;99.90;;;;;;5013269;28;20116;-80
2021/05/10 01:22:45;;;;;;;10.65;4.57;;;15.10;99.90;;;;;;5013116;28;20045;-80
2021/05/10 01:25:17;;;;;;;7.80;3.33;;;15.00;99.90;;;;;;5009532;28;20037;-81
2021/05/10 01:27:43;;;;;;;4.97;3.15;;;14.90;99.90;;;;;;5012778;28;20474;-76
2021/05/10 01:30:19;;;;;;;9.30;3.67;;;14.90;99.90;;;;;;5027719;28;20064;-81
2021/05/10 01:32:46;;;;;;;6.45;3.28;;;14.80;99.90;;;;;;5013275;28;20030;-83
2021/05/10 01:35:13;;;;;;;10.25;2.92;;;14.80;99.90;;;;;;5012950;28;20030;-78
2021/05/10 01:37:38;;;;;;;4.93;3.08;;;14.70;99.90;;;;;;5013083;28;20022;-87
2021/05/10 01:40:06;;;;;;;6.75;3.85;;;14.70;99.90;;;;;;5013285;28;20364;-77
2021/05/10 01:42:32;;;;;;;5.95;3.38;;;14.70;99.90;;;;;;5011263;28;20042;-78
2021/05/10 01:44:57;;;;;;;10.95;3.85;;;14.70;99.90;;;;;;5012524;28;20057;-77
2021/05/10 01:47:23;;;;;;;8.00;3.47;;;14.70;99.90;;;;;;5009065;28;20041;-78
2021/05/10 01:49:49;;;;;;;8.60;3.08;;;14.60;99.90;;;;;;5012799;28;20033;-76
2021/05/10 01:52:15;;;;;;;5.70;3.63;;;14.60;99.90;;;;;;5012240;28;20022;-77
2021/05/10 01:54:48;;;;;;;7.78;3.47;;;14.60;99.90;;;;;;5012488;28;20390;-77
2021/05/10 01:57:13;;;;;;;5.03;2.92;;;14.60;99.90;;;;;;5012288;28;20069;-81
2021/05/10 01:59:39;;;;;;;5.50;3.80;;;14.60;99.90;;;;;;5012452;28;20057;-82
2021/05/10 02:02:05;;;;;;;4.38;3.72;;;14.60;99.90;;;;;;5011275;28;20100;-77
2021/05/10 02:05:06;;;;;;;8.70;3.38;;;14.60;99.90;;;;;;5012462;28;20417;-81
2021/05/10 02:07:32;;;;;;;9.57;3.13;;;14.70;99.90;;;;;;5011371;28;20481;-85
2021/05/10 02:09:58;;;;;;;3.78;2.75;;;14.60;99.90;;;;;;5012486;28;20479;-78
2021/05/10 02:12:24;;;;;;;10.65;2.80;;;14.60;99.90;;;;;;5012246;28;20044;-82
2021/05/10 02:14:49;;;;;;;8.00;3.20;;;14.60;99.90;;;;;;5011692;28;20104;-78
2021/05/10 02:17:15;;;;;;;8.80;3.30;;;14.60;99.90;;;;;;5012095;28;20030;-78
2021/05/10 02:19:41;;;;;;;4.88;2.88;;;14.60;99.90;;;;;;5012365;28;20544;-78
2021/05/10 02:22:06;;;;;;;6.28;3.10;;;14.50;99.90;;;;;;5012109;28;20022;-78
2021/05/10 02:24:37;;;;;;;6.63;3.40;;;14.50;99.90;;;;;;5012084;28;20083;-84
2021/05/10 02:27:04;;;;;;;5.28;2.72;;;14.50;99.90;;;;;;5013261;28;20026;-80
2021/05/10 02:29:29;;;;;;;7.13;3.03;;;14.50;99.90;;;;;;5012017;28;20037;-80
2021/05/10 02:31:56;;;;;;;7.85;3.70;;;14.50;99.90;;;;;;5012053;28;20057;-80
2021/05/10 02:34:21;;;;;;;8.27;3.15;;;14.50;99.90;;;;;;5012030;28;20026;-80
2021/05/10 02:36:47;;;;;;;10.02;3.20;;;14.50;99.90;;;;;;5011492;28;20040;-77
2021/05/10 02:39:13;;;;;;;6.28;3.22;;;14.50;99.90;;;;;;5009543;28;20025;-79
2021/05/10 02:42:04;;;;;;;6.38;3.13;;;14.50;99.90;;;;;;5011480;28;20083;-78
2021/05/10 02:44:30;;;;;;;5.45;3.00;;;14.50;99.90;;;;;;5003780;28;20053;-77
2021/05/10 02:46:55;;;;;;;10.48;3.30;;;14.40;99.90;;;;;;5009931;28;20034;-77
2021/05/10 02:49:21;;;;;;;8.63;2.83;;;14.40;99.90;;;;;;5006426;28;20042;-77
2021/05/10 02:51:47;;;;;;;6.85;3.38;;;14.40;99.90;;;;;;5002324;28;20573;-78
2021/05/10 02:54:12;;;;;;;6.22;3.15;;;14.40;99.90;;;;;;5011437;28;20034;-79
2021/05/10 02:56:38;;;;;;;6.55;2.97;;;14.40;99.90;;;;;;5016211;28;20033;-77
2021/05/10 02:59:04;;;;;;;3.65;2.70;;;14.40;99.90;;;;;;5015702;28;20061;-77
2021/05/10 03:01:29;;;;;;;9.80;2.70;;;14.40;99.90;;;;;;5015776;28;20033;-80
2021/05/10 03:03:55;;;;;;;4.05;2.78;;;14.40;99.90;;;;;;5014667;28;20038;-79
2021/05/10 03:06:21;;;;;;;5.60;3.10;;;14.40;99.90;;;;;;5015597;28;20033;-78
2021/05/10 03:08:46;;;;;;;4.25;2.28;;;14.40;99.90;;;;;;5014662;28;20544;-78
2021/05/10 03:11:12;;;;;;;4.50;2.80;;;14.40;99.90;;;;;;5013697;28;20034;-78
2021/05/10 03:13:38;;;;;;;8.25;3.25;;;14.40;99.90;;;;;;5015712;28;20076;-80
2021/05/10 03:16:04;;;;;;;7.45;2.50;;;14.50;99.90;;;;;;5015375;28;20379;-78
2021/05/10 03:18:29;;;;;;;6.07;2.88;;;14.50;99.90;;;;;;5014719;28;20026;-78
2021/05/10 03:20:55;;;;;;;9.13;4.03;;;14.50;99.90;;;;;;5015336;28;20029;-80
2021/05/10 03:23:22;;;;;;;4.57;2.75;;;14.50;99.90;;;;;;5014909;28;20048;-78
2021/05/10 03:25:47;;;;;;;7.57;3.22;;;14.50;99.90;;;;;;5014930;28;20057;-82
2021/05/10 03:28:13;;;;;;;4.18;2.78;;;14.50;99.90;;;;;;5015252;28;20486;-79
2021/05/10 03:30:39;;;;;;;9.90;3.05;;;14.50;99.90;;;;;;5015249;28;20034;-80
2021/05/10 03:33:07;;;;;;;8.80;2.65;;;14.50;99.90;;;;;;5011057;28;20038;-78
2021/05/10 03:35:32;;;;;;;4.55;2.90;;;14.50;99.90;;;;;;5013718;28;20077;-78
2021/05/10 03:37:58;;;;;;;4.90;2.50;;;14.60;99.90;;;;;;5010955;28;20560;-78
2021/05/10 03:40:25;;;;;;;6.75;3.17;;;14.60;99.90;;;;;;5015295;28;20037;-79
2021/05/10 03:42:51;;;;;;;7.88;3.20;;;14.60;99.90;;;;;;5014600;28;20038;-79
2021/05/10 03:45:17;;;;;;;4.03;2.67;;;14.60;99.90;;;;;;5014732;28;20508;-79
2021/05/10 03:47:43;;;;;;;11.05;3.00;;;14.70;99.90;;;;;;5015185;28;20037;-78
2021/05/10 03:50:12;;;;;;;6.63;3.03;;;14.60;99.90;;;;;;5012716;28;20040;-80
2021/05/10 03:52:38;;;;;;;6.07;2.85;;;14.60;99.90;;;;;;5014636;28;20045;-81
2021/05/10 03:55:08;;;;;;;3.83;2.58;;;14.60;99.90;;;;;;5014596;28;20558;-79
2021/05/10 03:57:35;;;;;;;12.15;3.33;;;14.50;99.90;;;;;;5014843;28;20422;-81
2021/05/10 04:00:00;;;;;;;10.10;3.00;;;14.60;99.90;;;;;;5014965;28;20112;-77
2021/05/10 04:02:27;;;;;;;3.95;2.85;;;14.60;99.90;;;;;;5029853;28;20485;-83
2021/05/10 04:05:20;;;;;;;10.05;2.70;;;14.70;99.90;;;;;;5012711;28;20049;-79
2021/05/10 04:15:59;;;;;;;3.90;2.65;;;15.10;99.90;;;;;;5014236;28;20457;-78
2021/05/10 04:18:25;;;;;;;5.70;2.90;;;15.20;99.90;;;;;;5014617;28;20021;-79
2021/05/10 04:20:51;;;;;;;10.98;3.38;;;15.20;99.90;;;;;;5014226;28;20038;-77
2021/05/10 04:23:21;;;;;;;5.85;2.50;;;15.20;99.90;;;;;;5013669;28;20505;-78
2021/05/10 04:25:48;;;;;;;8.35;2.80;;;15.20;99.90;;;;;;5013646;28;20084;-78
2021/05/10 04:28:14;;;;;;;8.20;2.72;;;15.20;99.90;;;;;;5013323;28;20045;-79
2021/05/10 04:30:45;;;;;;;5.30;2.75;;;15.30;99.90;;;;;;5003611;28;20081;-79
2021/05/10 04:33:10;;;;;;;6.53;3.00;;;15.40;99.90;;;;;;5011764;28;20356;-80
2021/05/10 04:35:36;;;;;;;8.93;3.17;;;15.50;99.90;;;;;;5014432;28;20045;-79
2021/05/10 04:38:07;;;;;;;9.95;2.92;;;15.60;99.90;;;;;;5013842;28;20026;-79
2021/05/10 04:40:34;;;;;;;10.82;3.08;;;15.70;99.90;;;;;;5013492;28;20129;-78
2021/05/10 04:42:59;;;;;;;8.70;2.78;;;15.90;99.90;;;;;;5014463;28;20490;-79
2021/05/10 04:45:25;;;;;;;10.50;3.03;;;16.10;99.90;;;;;;5014221;28;20034;-80
2021/05/10 04:47:51;;;;;;;21.00;3.33;;;16.50;99.90;;;;;;5013883;28;20030;-80
2021/05/10 04:50:16;;;;;;;9.65;2.67;;;16.80;99.90;;;;;;5013690;28;20036;-78
2021/05/10 04:52:43;;;;;;;9.98;3.03;;;17.10;99.90;;;;;;5011591;28;20034;-85
2021/05/10 04:55:10;;;;;;;13.52;2.70;;;17.50;99.90;;;;;;5004052;28;20470;-83
2021/05/10 04:57:36;;;;;;;7.65;2.65;;;17.70;99.90;;;;;;5010076;28;20394;-81
2021/05/10 05:00:03;;;;;;;10.15;3.35;;;17.70;99.90;;;;;;5014002;28;20026;-83
2021/05/10 05:02:29;;;;;;;9.02;2.58;;;17.70;99.90;;;;;;5013257;28;20026;-85
2021/05/10 05:04:55;;;;;;;11.57;2.55;;;17.70;99.90;;;;;;5013143;28;20084;-80
2021/05/10 05:07:20;;;;;;;9.43;2.65;;;17.80;99.90;;;;;;5013469;28;20041;-82
2021/05/10 05:09:46;;;;;;;7.93;3.15;;;18.00;99.90;;;;;;5013427;28;20105;-83
2021/05/10 05:12:12;;;;;;;5.50;2.80;;;18.40;99.90;;;;;;5011887;28;20541;-85
2021/05/10 05:14:38;;;;;;;14.82;2.97;;;18.80;99.90;;;;;;5028466;28;20080;-83
2021/05/10 05:17:03;;;;;;;15.32;3.20;;;19.40;99.90;;;;;;5000785;28;20062;-83
2021/05/10 05:19:29;;;;;;;14.20;2.70;;;20.10;99.90;;;;;;5008664;28;20717;-83
2021/05/10 05:21:55;;;;;;;6.13;2.38;;;20.60;99.90;;;;;;5012860;28;20500;-83
2021/05/10 05:24:20;;;;;;;9.73;2.45;;;20.90;99.90;;;;;;5010742;28;20046;-82
2021/05/10 05:26:46;;;;;;;13.52;2.47;;;20.90;99.90;;;;;;5011192;28;20095;-79
2021/05/10 05:29:12;;;;;;;10.63;2.35;;;20.90;99.90;;;;;;5003729;28;20042;-78
2021/05/10 05:31:38;;;;;;;11.63;2.28;;;20.80;99.90;;;;;;5010045;28;20041;-81
2021/05/10 05:34:04;;;;;;;7.22;2.45;;;20.70;99.90;;;;;;5011176;28;20410;-80
2021/05/10 05:36:29;;;;;;;14.48;2.78;;;20.70;99.90;;;;;;5006973;28;20461;-78
2021/05/10 05:38:55;;;;;;;15.23;2.70;;;20.70;99.90;;;;;;5011832;28;20034;-79
2021/05/10 05:41:21;;;;;;;12.65;3.85;;;20.60;99.90;;;;;;5008480;28;20031;-80
2021/05/10 05:43:46;;;;;;;12.15;3.17;;;20.50;99.90;;;;;;5014630;28;20044;-80
2021/05/10 05:46:19;;;;;;;26.45;3.70;;;20.70;99.90;;;;;;5005550;28;20022;-81
2021/05/10 05:48:45;;;;;;;10.98;3.30;;;20.80;99.90;;;;;;5012047;28;20125;-82
2021/05/10 05:51:11;;;;;;;13.93;3.13;;;21.10;99.90;;;;;;5009907;28;20120;-81
2021/05/10 05:53:37;;;;;;;13.05;3.17;;;21.50;99.90;;;;;;5009317;28;20041;-82
2021/05/10 05:56:03;;;;;;;13.77;3.33;;;21.70;99.90;;;;;;5007764;28;20048;-83
2021/05/10 05:58:29;;;;;;;14.52;3.00;;;21.80;99.90;;;;;;5002878;28;20069;-84
2021/05/10 06:00:55;;;;;;;7.72;2.92;;;21.90;99.90;;;;;;5010047;28;20062;-82
2021/05/10 06:03:21;;;;;;;8.63;3.25;;;21.90;99.90;;;;;;5009972;28;20124;-83
2021/05/10 06:05:50;;;;;;;6.32;2.78;;;22.00;99.90;;;;;;5000401;28;20038;-82
2021/05/10 06:08:16;;;;;;;8.30;1.80;;;22.10;99.90;;;;;;5012017;28;20037;-82
2021/05/10 06:10:46;;;;;;;11.50;3.03;;;22.60;99.90;;;;;;5003706;28;20038;-83
2021/05/10 06:13:12;;;;;;;13.35;2.83;;;23.40;99.90;;;;;;5011389;28;20128;-82
2021/05/10 06:15:38;;;;;;;9.38;2.58;;;24.40;99.90;;;;;;5011107;28;20121;-83
2021/05/10 06:18:10;;;;;;;14.88;2.88;;;25.50;99.90;;;;;;5008808;28;20865;-83
2021/05/10 06:20:59;;;;;;;8.02;1.77;;;26.50;99.90;;;;;;5006047;28;20104;-82
2021/05/10 06:23:33;;;;;;;7.97;1.80;;;27.00;98.50;;;;;;5006144;28;20031;-84
2021/05/10 06:25:59;;;;;;;10.40;2.50;;;27.70;96.10;;;;;;5008616;28;20133;-82
2021/05/10 06:28:25;;;;;;;10.93;2.35;;;27.90;94.90;;;;;;5012361;28;20049;-83
2021/05/10 06:30:51;;;;;;;37.83;3.38;;;28.20;93.80;;;;;;5011878;28;20042;-81
2021/05/10 06:33:17;;;;;;;22.08;2.42;;;28.20;93.20;;;;;;5011829;28;20038;-80
2021/05/10 06:35:42;;;;;;;6.10;1.42;;;27.90;92.60;;;;;;5004303;28;20156;-81
2021/05/10 06:38:12;;;;;;;5.30;1.85;;;27.60;91.50;;;;;;5010020;28;20109;-81
2021/05/10 06:40:38;;;;;;;12.45;1.90;;;27.80;91.20;;;;;;5010738;28;20035;-83
2021/05/10 06:43:04;;;;;;;10.32;1.80;;;28.10;90.90;;;;;;5009226;28;20478;-80
2021/05/10 06:45:29;;;;;;;25.63;2.30;;;28.40;90.60;;;;;;5011109;28;20050;-81
2021/05/10 06:47:55;;;;;;;16.30;1.83;;;28.80;90.00;;;;;;5011346;28;20467;-81
2021/05/10 06:50:21;;;;;;;5.78;1.60;;;29.00;88.80;;;;;;5010161;28;20085;-79
2021/05/10 06:52:46;;;;;;;5.20;1.20;;;29.10;87.00;;;;;;5004342;28;20026;-80
2021/05/10 06:55:12;;;;;;;5.28;1.13;;;29.30;86.10;;;;;;5011196;28;20023;-81
2021/05/10 06:57:38;;;;;;;9.73;2.17;;;29.80;85.00;;;;;;4998708;28;20117;-80
2021/05/10 07:00:06;;;;;;;8.23;2.00;;;30.20;84.30;;;;;;5007162;28;20109;-80
2021/05/10 07:02:32;;;;;;;9.88;1.95;;;30.70;84.50;;;;;;5012171;28;20064;-82
2021/05/10 07:04:58;;;;;;;11.10;1.65;;;31.30;81.50;;;;;;5001586;28;20038;-80
2021/05/10 07:07:24;;;;;;;2.67;1.00;;;31.70;78.50;;;;;;5011450;28;20509;-80
2021/05/10 07:09:49;;;;;;;1.98;1.00;;;32.00;76.40;;;;;;5011755;28;20041;-78
2021/05/10 07:12:15;;;;;;;4.82;1.15;;;31.90;76.60;;;;;;5011309;28;20053;-78
2021/05/10 07:14:42;;;;;;;5.22;1.25;;;31.60;74.80;;;;;;5012274;28;20422;-79
2021/05/10 07:17:08;;;;;;;4.38;0.90;;;31.30;74.60;;;;;;5013108;28;20026;-79
2021/05/10 07:19:34;;;;;;;5.50;1.33;;;31.00;74.60;;;;;;5002653;28;20445;-78
2021/05/10 07:22:00;;;;;;;3.97;1.25;;;30.60;75.10;;;;;;5011574;28;20029;-78
2021/05/10 07:24:26;;;;;;;5.85;1.30;;;30.20;75.90;;;;;;5011417;28;20390;-78
2021/05/10 07:26:52;;;;;;;5.88;1.67;;;29.90;76.00;;;;;;5005714;28;20338;-77
2021/05/10 07:29:17;;;;;;;7.50;1.42;;;29.70;75.50;;;;;;5011514;28;20085;-78
2021/05/10 07:31:43;;;;;;;7.50;1.30;;;29.50;75.90;;;;;;5005795;28;20444;-80
2021/05/10 07:34:09;;;;;;;3.80;1.10;;;29.10;75.60;;;;;;5011675;28;20034;-81
2021/05/10 07:36:35;;;;;;;4.47;1.13;;;28.70;76.20;;;;;;5011570;28;20465;-78
2021/05/10 07:39:01;;;;;;;2.05;0.98;;;28.40;75.20;;;;;;5011622;28;20030;-78
2021/05/10 07:41:26;;;;;;;4.38;1.23;;;27.80;77.00;;;;;;5015512;28;20025;-79
2021/05/10 07:43:52;;;;;;;10.02;1.45;;;27.60;76.90;;;;;;5008123;28;20053;-77
2021/05/10 07:46:18;;;;;;;3.08;1.23;;;27.40;78.20;;;;;;5008663;28;20026;-78
2021/05/10 07:48:44;;;;;;;5.10;2.10;;;27.40;78.10;;;;;;5014740;28;20022;-79
2021/05/10 07:51:10;;;;;;;6.30;1.35;;;27.10;79.00;;;;;;5014649;28;20490;-76
2021/05/10 07:53:36;;;;;;;5.15;1.60;;;27.10;79.60;;;;;;5013651;28;20482;-77
2021/05/10 07:56:02;;;;;;;5.57;1.40;;;27.10;79.50;;;;;;5015836;28;20048;-76
2021/05/10 07:58:28;;;;;;;8.93;1.50;;;26.70;79.20;;;;;;5010522;28;20037;-77
2021/05/10 08:00:57;;;;;;;1.52;0.95;;;26.50;80.60;;;;;;5007421;28;20478;-77
2021/05/10 08:03:26;;;;;;;4.22;1.40;;;26.50;81.60;;;;;;5013125;28;20478;-75
2021/05/10 08:05:52;;;;;;;2.65;1.00;;;26.60;79.90;;;;;;5014230;28;20045;-77
2021/05/10 08:08:22;;;;;;;9.32;2.17;;;26.50;80.50;;;;;;5010137;28;20697;-76
2021/05/10 08:10:48;;;;;;;7.47;2.72;;;26.40;82.20;;;;;;5009856;28;20081;-78
2021/05/10 08:13:14;;;;;;;9.88;4.32;;;26.40;82.50;;;;;;5011131;28;20022;-80
2021/05/10 08:15:40;;;;;;;2.90;1.55;;;26.50;82.90;;;;;;5013736;28;20037;-80
2021/05/10 08:18:06;;;;;;;8.80;2.20;;;26.70;83.90;;;;;;5014451;28;20034;-75
2021/05/10 08:20:32;;;;;;;3.08;1.50;;;26.70;82.70;;;;;;5009975;28;20093;-82
2021/05/10 08:22:58;;;;;;;3.33;1.30;;;26.60;82.90;;;;;;5017202;28;20471;-80
2021/05/10 08:25:24;;;;;;;4.95;1.15;;;26.40;82.90;;;;;;5013981;28;20065;-77
2021/05/10 08:27:50;;;;;;;4.68;1.40;;;26.00;82.50;;;;;;5014072;28;20026;-76
2021/05/10 08:30:17;;;;;;;4.50;1.27;;;25.70;85.10;;;;;;5013835;28;20037;-75
2021/05/10 08:32:42;;;;;;;6.45;1.30;;;25.70;84.30;;;;;;5017124;28;20045;-77
2021/05/10 08:35:10;;;;;;;4.85;1.55;;;25.70;85.40;;;;;;5009816;28;20034;-75
2021/05/10 08:37:36;;;;;;;2.25;1.27;;;25.90;86.00;;;;;;5010505;28;20116;-76
2021/05/10 08:40:04;;;;;;;9.82;1.45;;;26.00;85.00;;;;;;5012667;28;20026;-77
2021/05/10 08:42:29;;;;;;;6.10;1.85;;;26.20;85.30;;;;;;5013595;28;20041;-76
2021/05/10 08:44:55;;;;;;;14.48;1.60;;;26.30;85.00;;;;;;5014235;28;20482;-76
2021/05/10 08:47:32;;;;;;;8.63;1.55;;;26.50;85.80;;;;;;5013051;28;20036;-76
2021/05/10 08:50:03;;;;;;;4.40;1.90;;;26.70;86.40;;;;;;5008559;28;20168;-79
2021/05/10 08:52:29;;;;;;;5.13;1.52;;;26.70;84.40;;;;;;5010495;28;20467;-77
2021/05/10 08:54:55;;;;;;;4.55;1.63;;;26.80;85.40;;;;;;5013177;28;20105;-77
2021/05/10 08:57:21;;;;;;;7.55;2.22;;;26.70;83.30;;;;;;5013210;28;20390;-76
2021/05/10 08:59:46;;;;;;;5.43;1.60;;;26.60;83.60;;;;;;5002901;28;20022;-76
2021/05/10 09:02:12;;;;;;;2.80;1.40;;;26.50;83.80;;;;;;5013145;28;20491;-76
2021/05/10 09:04:41;;;;;;;20.33;1.83;;;26.60;83.20;;;;;;5012775;28;20038;-76
2021/05/10 09:07:17;;;;;;;3.95;1.80;;;26.60;85.00;;;;;;5013281;28;20021;-76
2021/05/10 09:09:50;;;;;;;18.95;2.55;;;26.70;85.80;;;;;;5010232;28;20474;-76
2021/05/10 09:12:17;;;;;;;7.90;1.92;;;26.70;86.40;;;;;;5009053;28;20479;-76
2021/05/10 09:14:43;;;;;;;5.15;1.77;;;26.70;84.90;;;;;;5010951;28;20022;-78
2021/05/10 09:17:09;;;;;;;6.78;1.80;;;26.80;84.30;;;;;;5011962;28;20758;-79
2021/05/10 09:19:44;;;;;;;4.85;1.50;;;26.80;85.10;;;;;;5011250;28;20513;-80
2021/05/10 09:22:11;;;;;;;11.40;1.80;;;26.80;83.00;;;;;;5009704;28;20037;-80
2021/05/10 09:24:49;;;;;;;4.13;1.33;;;26.90;81.90;;;;;;5014817;28;20077;-79
2021/05/10 09:27:30;;;;;;;4.70;1.48;;;27.00;81.80;;;;;;5014117;28;20040;-80
2021/05/10 09:30:13;;;;;;;4.68;1.08;;;27.20;82.50;;;;;;5012850;28;20022;-82
2021/05/10 09:32:40;;;;;;;8.95;1.48;;;27.40;81.10;;;;;;5011578;28;20083;-81
2021/05/10 09:35:19;;;;;;;5.32;1.20;;;27.60;80.30;;;;;;5002606;28;20037;-81
2021/05/10 09:37:58;;;;;;;7.15;1.10;;;27.70;78.20;;;;;;5010437;28;20482;-79
2021/05/10 09:40:28;;;;;;;3.20;1.00;;;27.70;77.50;;;;;;5009888;28;20061;-80
2021/05/10 09:42:58;;;;;;;7.13;1.20;;;27.80;77.70;;;;;;5011946;28;20125;-80
2021/05/10 09:45:32;;;;;;;4.10;0.87;;;28.10;75.90;;;;;;5006430;28;20041;-82
2021/05/10 09:48:13;;;;;;;3.42;0.85;;;28.10;75.00;;;;;;4999421;28;20626;-83
2021/05/10 09:51:15;;;;;;;7.07;1.00;;;28.20;74.50;;;;;;5009488;28;20030;-80
2021/05/10 09:53:50;;;;;;;6.82;1.48;;;28.30;73.80;;;;;;5011555;28;20089;-83
2021/05/10 09:56:39;;;;;;;10.55;1.13;;;28.30;72.80;;;;;;5027449;28;20108;-82
2021/05/10 09:59:11;;;;;;;9.43;1.10;;;28.20;72.90;;;;;;5011706;28;20080;-86
2021/05/10 10:01:45;;;;;;;3.88;1.15;;;28.30;73.40;;;;;;5010390;28;20050;-82
2021/05/10 10:04:12;;;;;;;3.28;1.05;;;28.20;72.80;;;;;;5014685;28;20042;-82
2021/05/10 10:06:38;;;;;;;2.72;1.17;;;28.00;74.60;;;;;;5014680;28;20026;-83
2021/05/10 10:09:05;;;;;;;2.35;0.85;;;27.80;73.70;;;;;;5011760;28;20077;-83
2021/05/10 10:11:31;;;;;;;5.43;1.02;;;27.80;73.30;;;;;;5011954;28;20410;-83
2021/05/10 10:14:00;;;;;;;4.97;1.42;;;27.60;74.90;;;;;;5010375;28;20033;-81
2021/05/10 10:16:28;;;;;;;11.63;1.60;;;27.40;77.00;;;;;;5011605;28;20030;-84
2021/05/10 10:18:57;;;;;;;8.30;1.40;;;27.30;78.20;;;;;;5026465;28;20032;-83
2021/05/10 10:21:23;;;;;;;3.70;1.50;;;26.90;78.40;;;;;;5011487;28;20506;-83
2021/05/10 10:23:55;;;;;;;2.95;1.10;;;26.90;78.80;;;;;;5027113;28;20096;-85
2021/05/10 10:26:22;;;;;;;6.38;1.33;;;26.80;77.60;;;;;;5018937;28;20478;-86
2021/05/10 10:28:49;;;;;;;7.00;1.23;;;26.70;77.10;;;;;;5027661;28;20037;-83
2021/05/10 10:31:28;;;;;;;9.52;1.40;;;26.60;77.00;;;;;;5003023;28;20497;-79
2021/05/10 10:34:27;;;;;;;3.13;1.25;;;26.30;78.10;;;;;;5019884;28;20120;-83
2021/05/10 10:36:59;;;;;;;5.88;1.23;;;25.90;78.60;;;;;;5006448;28;20034;-84
2021/05/10 10:39:27;;;;;;;3.92;1.25;;;25.70;79.50;;;;;;5005539;28;20030;-82
2021/05/10 10:41:59;;;;;;;3.35;1.50;;;25.60;81.90;;;;;;5008427;28;20479;-83
2021/05/10 10:44:29;;;;;;;4.35;1.08;;;25.50;80.40;;;;;;5011159;28;20038;-82
2021/05/10 10:46:55;;;;;;;3.23;1.43;;;25.30;80.80;;;;;;5010310;28;20040;-83
2021/05/10 10:49:36;;;;;;;13.15;1.42;;;25.20;81.40;;;;;;5011276;28;20394;-83
2021/05/10 10:52:03;;;;;;;7.43;1.42;;;25.10;81.30;;;;;;5009478;28;20026;-83
2021/05/10 10:54:30;;;;;;;4.47;1.20;;;24.90;82.60;;;;;;5011553;28;20030;-81
2021/05/10 10:57:01;;;;;;;3.85;1.10;;;24.90;83.20;;;;;;5015087;28;20025;-83
2021/05/10 10:59:38;;;;;;;7.83;1.37;;;24.90;84.30;;;;;;5005896;28;20150;-82
2021/05/10 11:02:17;;;;;;;4.72;1.00;;;25.00;83.90;;;;;;5008571;28;20023;-84
2021/05/10 11:04:45;;;;;;;3.65;1.17;;;25.00;85.30;;;;;;5009300;28;20045;-84
2021/05/10 11:07:13;;;;;;;7.60;1.58;;;24.90;86.20;;;;;;5010957;28;20018;-83
2021/05/10 11:09:45;;;;;;;7.25;1.02;;;24.80;87.50;;;;;;5009565;28;20057;-83
2021/05/10 11:12:47;;;;;;;5.07;1.27;;;24.80;87.20;;;;;;5016221;28;20041;-83
2021/05/10 11:15:35;;;;;;;3.22;1.02;;;24.80;86.30;;;;;;5023940;28;20418;-80
2021/05/10 11:18:02;;;;;;;2.75;1.58;;;24.90;83.80;;;;;;5014733;28;20144;-81
2021/05/10 11:20:44;;;;;;;2.75;1.15;;;24.90;83.80;;;;;;5008421;28;20402;-84
2021/05/10 11:23:25;;;;;;;;;;;24.80;82.50;;;;;;5015682;28;20034;-86
2021/05/10 11:25:51;;;;;;;4.13;0.80;;;24.70;83.00;;;;;;5015885;28;19913;-87
2021/05/10 11:28:32;;;;;;;3.00;1.23;;;24.70;84.80;;;;;;5014348;28;20101;-80
2021/05/10 11:31:05;;;;;;;1.75;1.08;;;24.60;83.50;;;;;;5014165;28;20034;-79
2021/05/10 11:33:52;;;;;;;5.15;1.13;;;24.50;83.70;;;;;;5014718;28;20018;-80
2021/05/10 11:36:29;;;;;;;3.30;1.02;;;24.50;83.40;;;;;;5012054;28;20025;-81
2021/05/10 11:38:57;;;;;;;18.42;1.45;;;24.50;85.20;;;;;;5012798;28;20041;-81
2021/05/10 11:41:33;;;;;;;2.28;1.25;;;24.60;83.50;;;;;;5010795;28;20030;-80
2021/05/10 11:44:01;;;;;;;2.20;1.23;;;24.50;83.30;;;;;;5013794;28;20037;-81
2021/05/10 11:46:43;;;;;;;1.10;0.80;;;24.50;83.70;;;;;;5014461;28;20034;-82
2021/05/10 11:49:30;;;;;;;6.43;1.13;;;24.50;82.60;;;;;;5014506;28;20029;-81
2021/05/10 11:51:58;;;;;;;6.75;1.25;;;24.50;83.80;;;;;;5013142;28;20034;-81
2021/05/10 11:54:25;;;;;;;1.42;1.00;;;24.50;84.20;;;;;;5007459;28;20093;-79
2021/05/10 11:56:52;;;;;;;3.63;1.30;;;24.50;83.70;;;;;;5007968;28;20462;-80
2021/05/10 11:59:35;;;;;;;3.28;1.02;;;24.60;84.00;;;;;;5015141;28;20014;-79
2021/05/10 12:02:02;;;;;;;5.70;1.10;;;24.60;84.20;;;;;;5003307;28;20034;-79
2021/05/10 12:04:31;;;;;;;7.35;1.20;;;24.70;84.00;;;;;;5012726;28;20129;-82
2021/05/10 12:06:59;;;;;;;9.05;1.27;;;24.70;83.50;;;;;;5000997;28;20042;-83
2021/05/10 12:09:35;;;;;;;2.53;1.00;;;24.70;83.50;;;;;;5012505;28;20085;-82
2021/05/10 12:12:20;;;;;;;6.53;1.17;;;24.70;83.50;;;;;;5021933;28;20041;-85
2021/05/10 12:14:49;;;;;;;3.80;1.20;;;24.70;84.20;;;;;;5018001;28;20518;-81
2021/05/10 12:17:23;;;;;;;1.95;1.10;;;24.70;85.40;;;;;;5015536;28;20057;-84
2021/05/10 12:20:01;;;;;;;3.35;1.20;;;24.70;86.20;;;;;;5023141;28;20096;-85
2021/05/10 12:22:34;;;;;;;6.63;1.00;;;24.60;84.30;;;;;;5013794;28;20029;-85
2021/05/10 12:25:13;;;;;;;6.05;1.45;;;24.50;85.10;;;;;;5012882;28;20074;-82
2021/05/10 12:27:57;;;;;;;2.83;0.77;;;24.50;85.10;;;;;;5003915;28;20026;-84
2021/05/10 12:30:25;;;;;;;2.95;1.25;;;24.50;84.80;;;;;;5014204;28;20037;-82
2021/05/10 12:33:17;;;;;;;4.35;1.38;;;24.40;84.80;;;;;;5011405;28;20030;-84
2021/05/10 12:35:44;;;;;;;4.38;1.15;;;24.40;85.10;;;;;;5004331;28;20026;-85
2021/05/10 12:38:10;;;;;;;5.60;1.40;;;24.40;84.00;;;;;;5028964;28;20089;-82
2021/05/10 12:40:41;;;;;;;6.07;1.42;;;24.40;85.00;;;;;;5001398;28;20033;-83
2021/05/10 12:43:21;;;;;;;0.95;0.80;;;24.40;83.90;;;;;;5008978;28;20041;-83
2021/05/10 12:45:59;;;;;;;3.13;0.90;;;24.30;83.30;;;;;;5005726;28;20055;-86
2021/05/10 12:48:29;;;;;;;4.47;1.20;;;24.40;83.20;;;;;;5002826;28;20048;-91
2021/05/10 12:51:05;;;;;;;3.47;0.90;;;24.40;83.00;;;;;;5015827;28;20037;-87
2021/05/10 12:53:42;;;;;;;9.13;2.55;;;24.30;82.70;;;;;;5014418;28;20554;-85
2021/05/10 12:56:25;;;;;;;4.50;1.10;;;24.20;83.20;;;;;;5018455;28;20033;-91
2021/05/10 12:58:52;;;;;;;39.30;18.48;;;24.20;82.50;;;;;;5017738;28;20112;-86
2021/05/10 13:01:22;;;;;;;8.32;1.90;;;24.10;83.70;;;;;;5036601;28;20029;-87
2021/05/10 13:07:09;;;;;;;2.47;1.17;;;24.30;84.40;;;;;;4951705;28;20098;-88